sensor_id;sensor_type;location;lat;lon;timestamp;P1;durP1;ratioP1;P2;durP2;ratioP2
26062;SDS011;13837;48.562;12.108;2022-11-11T00:01:47;29.08;;;24.73;;
26062;SDS011;13837;48.562;12.108;2022-11-11T00:04:32;24.35;;;22.00;;
26062;SDS011;13837;48.562;12.108;2022-11-11T00:07:16;24.52;;;22.30;;
26062;SDS011;13837;48.562;12.108;2022-11-11T00:10:00;22.55;;;20.60;;
26062;SDS011;13837;48.562;12.108;2022-11-11T00:12:44;24.30;;;21.90;;
26062;SDS011;13837;48.562;12.108;2022-11-11T00:15:28;23.55;;;21.48;;
26062;SDS011;13837;48.562;12.108;2022-11-11T00:18:12;24.20;;;21.77;;
26062;SDS011;13837;48.562;12.108;2022-11-11T00:21:15;25.23;;;22.73;;
26062;SDS011;13837;48.562;12.108;2022-11-11T00:27:30;24.00;;;21.83;;
26062;SDS011;13837;48.562;12.108;2022-11-11T00:30:14;24.48;;;22.00;;
26062;SDS011;13837;48.562;12.108;2022-11-11T00:32:59;24.45;;;22.25;;
26062;SDS011;13837;48.562;12.108;2022-11-11T00:35:43;23.25;;;21.15;;
26062;SDS011;13837;48.562;12.108;2022-11-11T00:38:36;23.92;;;21.83;;
26062;SDS011;13837;48.562;12.108;2022-11-11T00:41:29;24.67;;;22.27;;
26062;SDS011;13837;48.562;12.108;2022-11-11T00:44:14;23.90;;;21.75;;
26062;SDS011;13837;48.562;12.108;2022-11-11T00:46:58;24.10;;;21.80;;
26062;SDS011;13837;48.562;12.108;2022-11-11T00:50:02;23.08;;;20.77;;
26062;SDS011;13837;48.562;12.108;2022-11-11T00:53:08;24.60;;;22.30;;
26062;SDS011;13837;48.562;12.108;2022-11-11T00:56:03;31.55;;;22.23;;
26062;SDS011;13837;48.562;12.108;2022-11-11T00:58:48;34.40;;;24.45;;
26062;SDS011;13837;48.562;12.108;2022-11-11T01:01:33;41.63;;;25.13;;
26062;SDS011;13837;48.562;12.108;2022-11-11T01:04:18;34.45;;;24.88;;
26062;SDS011;13837;48.562;12.108;2022-11-11T01:07:02;35.45;;;23.77;;
26062;SDS011;13837;48.562;12.108;2022-11-11T01:09:46;31.70;;;25.13;;
26062;SDS011;13837;48.562;12.108;2022-11-11T01:12:30;52.67;;;25.13;;
26062;SDS011;13837;48.562;12.108;2022-11-11T01:15:14;32.30;;;24.33;;
26062;SDS011;13837;48.562;12.108;2022-11-11T01:17:59;29.83;;;24.67;;
26062;SDS011;13837;48.562;12.108;2022-11-11T01:20:43;43.40;;;25.95;;
26062;SDS011;13837;48.562;12.108;2022-11-11T01:23:28;36.13;;;25.90;;
26062;SDS011;13837;48.562;12.108;2022-11-11T01:26:15;51.15;;;27.02;;
26062;SDS011;13837;48.562;12.108;2022-11-11T01:29:01;45.17;;;26.85;;
26062;SDS011;13837;48.562;12.108;2022-11-11T01:31:46;40.47;;;25.92;;
26062;SDS011;13837;48.562;12.108;2022-11-11T01:34:30;39.97;;;26.58;;
26062;SDS011;13837;48.562;12.108;2022-11-11T01:37:14;41.75;;;28.20;;
26062;SDS011;13837;48.562;12.108;2022-11-11T01:39:58;42.42;;;27.15;;
26062;SDS011;13837;48.562;12.108;2022-11-11T01:42:49;34.28;;;26.38;;
26062;SDS011;13837;48.562;12.108;2022-11-11T01:45:57;33.17;;;26.38;;
26062;SDS011;13837;48.562;12.108;2022-11-11T01:48:45;33.30;;;25.88;;
26062;SDS011;13837;48.562;12.108;2022-11-11T01:55:07;28.42;;;24.92;;
26062;SDS011;13837;48.562;12.108;2022-11-11T01:57:56;33.03;;;25.40;;
26062;SDS011;13837;48.562;12.108;2022-11-11T02:00:45;31.58;;;25.85;;
26062;SDS011;13837;48.562;12.108;2022-11-11T02:03:29;29.02;;;26.05;;
26062;SDS011;13837;48.562;12.108;2022-11-11T02:06:18;35.22;;;25.20;;
26062;SDS011;13837;48.562;12.108;2022-11-11T02:09:03;35.13;;;26.13;;
26062;SDS011;13837;48.562;12.108;2022-11-11T02:11:48;32.47;;;25.15;;
26062;SDS011;13837;48.562;12.108;2022-11-11T02:14:53;30.65;;;25.40;;
26062;SDS011;13837;48.562;12.108;2022-11-11T02:17:40;28.73;;;25.80;;
26062;SDS011;13837;48.562;12.108;2022-11-11T02:20:25;29.95;;;26.75;;
26062;SDS011;13837;48.562;12.108;2022-11-11T02:26:31;27.80;;;24.83;;
26062;SDS011;13837;48.562;12.108;2022-11-11T02:29:18;29.30;;;26.25;;
26062;SDS011;13837;48.562;12.108;2022-11-11T02:32:04;31.90;;;26.13;;
26062;SDS011;13837;48.562;12.108;2022-11-11T02:34:48;33.97;;;26.90;;
26062;SDS011;13837;48.562;12.108;2022-11-11T02:37:32;28.50;;;25.50;;
26062;SDS011;13837;48.562;12.108;2022-11-11T02:40:18;27.35;;;24.58;;
26062;SDS011;13837;48.562;12.108;2022-11-11T02:43:49;26.27;;;23.60;;
26062;SDS011;13837;48.562;12.108;2022-11-11T02:46:33;28.35;;;25.40;;
26062;SDS011;13837;48.562;12.108;2022-11-11T02:49:17;28.80;;;25.45;;
26062;SDS011;13837;48.562;12.108;2022-11-11T02:52:01;28.15;;;25.40;;
26062;SDS011;13837;48.562;12.108;2022-11-11T02:54:46;28.35;;;25.67;;
26062;SDS011;13837;48.562;12.108;2022-11-11T02:57:32;34.35;;;25.20;;
26062;SDS011;13837;48.562;12.108;2022-11-11T03:00:17;27.75;;;24.90;;
26062;SDS011;13837;48.562;12.108;2022-11-11T03:03:01;27.38;;;24.58;;
26062;SDS011;13837;48.562;12.108;2022-11-11T03:05:45;30.58;;;25.35;;
26062;SDS011;13837;48.562;12.108;2022-11-11T03:08:29;28.23;;;25.50;;
26062;SDS011;13837;48.562;12.108;2022-11-11T03:11:13;30.15;;;25.52;;
26062;SDS011;13837;48.562;12.108;2022-11-11T03:13:57;27.95;;;24.88;;
26062;SDS011;13837;48.562;12.108;2022-11-11T03:16:42;26.85;;;24.30;;
26062;SDS011;13837;48.562;12.108;2022-11-11T03:19:45;28.60;;;24.27;;
26062;SDS011;13837;48.562;12.108;2022-11-11T03:22:29;27.35;;;24.73;;
26062;SDS011;13837;48.562;12.108;2022-11-11T03:25:13;29.15;;;25.40;;
26062;SDS011;13837;48.562;12.108;2022-11-11T03:28:17;27.25;;;24.70;;
26062;SDS011;13837;48.562;12.108;2022-11-11T03:31:03;29.23;;;25.88;;
26062;SDS011;13837;48.562;12.108;2022-11-11T03:33:47;28.40;;;25.35;;
26062;SDS011;13837;48.562;12.108;2022-11-11T03:36:32;26.90;;;24.70;;
26062;SDS011;13837;48.562;12.108;2022-11-11T03:39:36;27.90;;;25.42;;
26062;SDS011;13837;48.562;12.108;2022-11-11T03:42:20;28.58;;;25.70;;
26062;SDS011;13837;48.562;12.108;2022-11-11T03:45:05;27.73;;;25.13;;
26062;SDS011;13837;48.562;12.108;2022-11-11T03:47:49;28.98;;;25.92;;
26062;SDS011;13837;48.562;12.108;2022-11-11T03:50:33;28.23;;;25.42;;
26062;SDS011;13837;48.562;12.108;2022-11-11T03:53:18;31.63;;;27.20;;
26062;SDS011;13837;48.562;12.108;2022-11-11T03:56:04;27.70;;;25.00;;
26062;SDS011;13837;48.562;12.108;2022-11-11T03:58:48;29.08;;;26.17;;
26062;SDS011;13837;48.562;12.108;2022-11-11T04:01:32;27.45;;;24.98;;
26062;SDS011;13837;48.562;12.108;2022-11-11T04:04:35;28.98;;;26.27;;
26062;SDS011;13837;48.562;12.108;2022-11-11T04:07:38;31.30;;;28.17;;
26062;SDS011;13837;48.562;12.108;2022-11-11T04:10:41;30.77;;;27.98;;
26062;SDS011;13837;48.562;12.108;2022-11-11T04:13:26;35.80;;;25.33;;
26062;SDS011;13837;48.562;12.108;2022-11-11T04:16:30;30.80;;;25.88;;
26062;SDS011;13837;48.562;12.108;2022-11-11T04:19:14;29.58;;;26.77;;
26062;SDS011;13837;48.562;12.108;2022-11-11T04:22:17;28.02;;;25.25;;
26062;SDS011;13837;48.562;12.108;2022-11-11T04:25:02;33.97;;;26.83;;
26062;SDS011;13837;48.562;12.108;2022-11-11T04:28:05;29.27;;;26.60;;
26062;SDS011;13837;48.562;12.108;2022-11-11T04:31:08;29.80;;;26.48;;
26062;SDS011;13837;48.562;12.108;2022-11-11T04:33:52;34.72;;;27.83;;
26062;SDS011;13837;48.562;12.108;2022-11-11T04:36:36;29.40;;;26.83;;
26062;SDS011;13837;48.562;12.108;2022-11-11T04:39:20;28.50;;;25.88;;
26062;SDS011;13837;48.562;12.108;2022-11-11T04:42:23;37.85;;;27.67;;
26062;SDS011;13837;48.562;12.108;2022-11-11T04:45:09;29.90;;;26.77;;
26062;SDS011;13837;48.562;12.108;2022-11-11T04:48:13;29.83;;;25.95;;
26062;SDS011;13837;48.562;12.108;2022-11-11T04:51:00;32.90;;;26.67;;
26062;SDS011;13837;48.562;12.108;2022-11-11T04:53:45;30.58;;;27.05;;
26062;SDS011;13837;48.562;12.108;2022-11-11T04:56:29;33.90;;;26.08;;
26062;SDS011;13837;48.562;12.108;2022-11-11T04:59:32;32.35;;;25.20;;
26062;SDS011;13837;48.562;12.108;2022-11-11T05:02:17;30.58;;;25.88;;
26062;SDS011;13837;48.562;12.108;2022-11-11T05:05:20;35.08;;;26.48;;
26062;SDS011;13837;48.562;12.108;2022-11-11T05:08:06;34.78;;;25.95;;
26062;SDS011;13837;48.562;12.108;2022-11-11T05:11:27;51.00;;;28.58;;
26062;SDS011;13837;48.562;12.108;2022-11-11T05:14:12;38.20;;;27.50;;
26062;SDS011;13837;48.562;12.108;2022-11-11T05:17:15;34.85;;;27.15;;
26062;SDS011;13837;48.562;12.108;2022-11-11T05:20:18;36.83;;;26.85;;
26062;SDS011;13837;48.562;12.108;2022-11-11T05:23:21;32.03;;;27.95;;
26062;SDS011;13837;48.562;12.108;2022-11-11T05:29:15;37.55;;;28.42;;
26062;SDS011;13837;48.562;12.108;2022-11-11T05:32:00;73.70;;;29.10;;
26062;SDS011;13837;48.562;12.108;2022-11-11T05:34:44;50.70;;;28.80;;
26062;SDS011;13837;48.562;12.108;2022-11-11T05:37:29;62.05;;;32.47;;
26062;SDS011;13837;48.562;12.108;2022-11-11T05:40:13;44.58;;;28.85;;
26062;SDS011;13837;48.562;12.108;2022-11-11T06:14:08;41.55;;;32.20;;
26062;SDS011;13837;48.562;12.108;2022-11-11T06:16:53;36.08;;;31.58;;
26062;SDS011;13837;48.562;12.108;2022-11-11T06:19:37;66.78;;;35.55;;
26062;SDS011;13837;48.562;12.108;2022-11-11T06:22:22;42.03;;;31.65;;
26062;SDS011;13837;48.562;12.108;2022-11-11T06:25:26;44.33;;;29.45;;
26062;SDS011;13837;48.562;12.108;2022-11-11T06:28:32;38.22;;;31.05;;
26062;SDS011;13837;48.562;12.108;2022-11-11T06:31:17;33.97;;;30.38;;
26062;SDS011;13837;48.562;12.108;2022-11-11T06:34:03;36.60;;;30.77;;
26062;SDS011;13837;48.562;12.108;2022-11-11T06:36:47;34.05;;;30.50;;
26062;SDS011;13837;48.562;12.108;2022-11-11T06:39:31;34.25;;;30.83;;
26062;SDS011;13837;48.562;12.108;2022-11-11T06:42:15;39.60;;;34.30;;
26062;SDS011;13837;48.562;12.108;2022-11-11T06:45:00;40.42;;;33.03;;
26062;SDS011;13837;48.562;12.108;2022-11-11T06:47:44;46.72;;;34.40;;
26062;SDS011;13837;48.562;12.108;2022-11-11T06:50:28;44.55;;;34.50;;
26062;SDS011;13837;48.562;12.108;2022-11-11T06:53:14;37.90;;;34.05;;
26062;SDS011;13837;48.562;12.108;2022-11-11T06:55:59;78.13;;;36.92;;
26062;SDS011;13837;48.562;12.108;2022-11-11T06:58:43;102.10;;;37.90;;
26062;SDS011;13837;48.562;12.108;2022-11-11T07:01:28;58.13;;;36.20;;
26062;SDS011;13837;48.562;12.108;2022-11-11T07:04:12;193.23;;;45.85;;
26062;SDS011;13837;48.562;12.108;2022-11-11T07:06:56;97.45;;;38.30;;
26062;SDS011;13837;48.562;12.108;2022-11-11T07:09:40;48.80;;;35.15;;
26062;SDS011;13837;48.562;12.108;2022-11-11T07:12:24;147.02;;;40.08;;
26062;SDS011;13837;48.562;12.108;2022-11-11T07:15:09;83.55;;;38.63;;
26062;SDS011;13837;48.562;12.108;2022-11-11T07:17:53;196.50;;;45.20;;
26062;SDS011;13837;48.562;12.108;2022-11-11T07:20:38;61.38;;;35.50;;
26062;SDS011;13837;48.562;12.108;2022-11-11T07:23:22;40.85;;;35.45;;
26062;SDS011;13837;48.562;12.108;2022-11-11T07:26:06;173.27;;;44.25;;
26062;SDS011;13837;48.562;12.108;2022-11-11T07:28:50;97.95;;;38.97;;
26062;SDS011;13837;48.562;12.108;2022-11-11T07:31:34;79.93;;;36.90;;
26062;SDS011;13837;48.562;12.108;2022-11-11T07:34:19;48.80;;;36.22;;
26062;SDS011;13837;48.562;12.108;2022-11-11T07:37:03;45.97;;;35.45;;
26062;SDS011;13837;48.562;12.108;2022-11-11T07:39:47;48.17;;;35.42;;
26062;SDS011;13837;48.562;12.108;2022-11-11T07:42:34;71.28;;;37.47;;
26062;SDS011;13837;48.562;12.108;2022-11-11T07:45:19;35.92;;;32.05;;
26062;SDS011;13837;48.562;12.108;2022-11-11T07:48:04;48.20;;;34.53;;
26062;SDS011;13837;48.562;12.108;2022-11-11T07:50:48;46.22;;;34.83;;
26062;SDS011;13837;48.562;12.108;2022-11-11T07:53:35;38.28;;;32.60;;
26062;SDS011;13837;48.562;12.108;2022-11-11T07:56:19;37.72;;;31.42;;
26062;SDS011;13837;48.562;12.108;2022-11-11T07:59:03;48.05;;;33.17;;
26062;SDS011;13837;48.562;12.108;2022-11-11T08:01:47;37.70;;;32.83;;
26062;SDS011;13837;48.562;12.108;2022-11-11T08:04:32;34.95;;;31.33;;
26062;SDS011;13837;48.562;12.108;2022-11-11T08:07:16;35.72;;;32.22;;
26062;SDS011;13837;48.562;12.108;2022-11-11T08:10:02;78.55;;;36.15;;
26062;SDS011;13837;48.562;12.108;2022-11-11T08:12:52;40.25;;;33.40;;
26062;SDS011;13837;48.562;12.108;2022-11-11T08:15:56;38.95;;;33.08;;
26062;SDS011;13837;48.562;12.108;2022-11-11T08:18:40;39.60;;;33.60;;
26062;SDS011;13837;48.562;12.108;2022-11-11T08:21:25;40.83;;;33.58;;
26062;SDS011;13837;48.562;12.108;2022-11-11T08:24:10;36.75;;;32.72;;
26062;SDS011;13837;48.562;12.108;2022-11-11T08:26:54;36.92;;;32.83;;
26062;SDS011;13837;48.562;12.108;2022-11-11T08:29:39;36.13;;;31.63;;
26062;SDS011;13837;48.562;12.108;2022-11-11T08:32:23;67.50;;;33.22;;
26062;SDS011;13837;48.562;12.108;2022-11-11T08:35:08;70.07;;;34.58;;
26062;SDS011;13837;48.562;12.108;2022-11-11T08:37:52;85.00;;;39.03;;
26062;SDS011;13837;48.562;12.108;2022-11-11T08:40:37;37.95;;;34.03;;
26062;SDS011;13837;48.562;12.108;2022-11-11T08:43:21;45.28;;;33.70;;
26062;SDS011;13837;48.562;12.108;2022-11-11T08:46:06;40.10;;;34.08;;
26062;SDS011;13837;48.562;12.108;2022-11-11T08:48:50;35.40;;;31.83;;
26062;SDS011;13837;48.562;12.108;2022-11-11T08:51:35;38.25;;;32.20;;
26062;SDS011;13837;48.562;12.108;2022-11-11T08:54:20;37.13;;;30.80;;
26062;SDS011;13837;48.562;12.108;2022-11-11T08:57:04;44.28;;;31.15;;
26062;SDS011;13837;48.562;12.108;2022-11-11T08:59:48;32.88;;;29.13;;
26062;SDS011;13837;48.562;12.108;2022-11-11T09:02:33;33.03;;;29.58;;
26062;SDS011;13837;48.562;12.108;2022-11-11T09:05:17;30.45;;;27.70;;
26062;SDS011;13837;48.562;12.108;2022-11-11T09:08:03;28.77;;;25.58;;
26062;SDS011;13837;48.562;12.108;2022-11-11T09:10:50;38.70;;;26.75;;
26062;SDS011;13837;48.562;12.108;2022-11-11T09:13:33;41.95;;;25.75;;
26062;SDS011;13837;48.562;12.108;2022-11-11T09:16:17;28.60;;;25.90;;
26062;SDS011;13837;48.562;12.108;2022-11-11T09:19:02;30.00;;;27.02;;
26062;SDS011;13837;48.562;12.108;2022-11-11T09:21:46;28.58;;;25.65;;
26062;SDS011;13837;48.562;12.108;2022-11-11T09:24:30;30.17;;;27.10;;
26062;SDS011;13837;48.562;12.108;2022-11-11T09:27:15;34.53;;;26.77;;
26062;SDS011;13837;48.562;12.108;2022-11-11T09:29:59;28.65;;;25.52;;
26062;SDS011;13837;48.562;12.108;2022-11-11T09:32:43;28.25;;;25.25;;
26062;SDS011;13837;48.562;12.108;2022-11-11T09:35:27;35.97;;;26.60;;
26062;SDS011;13837;48.562;12.108;2022-11-11T09:38:12;28.63;;;26.02;;
26062;SDS011;13837;48.562;12.108;2022-11-11T09:44:00;34.05;;;28.35;;
26062;SDS011;13837;48.562;12.108;2022-11-11T09:52:51;29.13;;;26.27;;
26062;SDS011;13837;48.562;12.108;2022-11-11T09:58:25;24.65;;;22.55;;
26062;SDS011;13837;48.562;12.108;2022-11-11T10:01:33;23.63;;;21.65;;
26062;SDS011;13837;48.562;12.108;2022-11-11T10:04:41;22.23;;;20.42;;
26062;SDS011;13837;48.562;12.108;2022-11-11T10:07:44;21.47;;;19.77;;
26062;SDS011;13837;48.562;12.108;2022-11-11T10:10:49;22.80;;;20.95;;
26062;SDS011;13837;48.562;12.108;2022-11-11T10:13:36;23.25;;;21.27;;
26062;SDS011;13837;48.562;12.108;2022-11-11T10:16:39;24.05;;;21.85;;
26062;SDS011;13837;48.562;12.108;2022-11-11T10:19:47;24.38;;;22.05;;
26062;SDS011;13837;48.562;12.108;2022-11-11T10:22:45;24.15;;;22.13;;
26062;SDS011;13837;48.562;12.108;2022-11-11T10:25:32;22.85;;;20.95;;
26062;SDS011;13837;48.562;12.108;2022-11-11T10:28:18;19.63;;;18.13;;
26062;SDS011;13837;48.562;12.108;2022-11-11T10:31:08;20.30;;;18.70;;
26062;SDS011;13837;48.562;12.108;2022-11-11T10:34:02;19.10;;;17.70;;
26062;SDS011;13837;48.562;12.108;2022-11-11T10:36:52;18.02;;;16.60;;
26062;SDS011;13837;48.562;12.108;2022-11-11T10:42:53;16.98;;;15.73;;
26062;SDS011;13837;48.562;12.108;2022-11-11T10:45:44;16.83;;;15.50;;
26062;SDS011;13837;48.562;12.108;2022-11-11T10:48:39;17.52;;;16.25;;
26062;SDS011;13837;48.562;12.108;2022-11-11T10:51:34;20.80;;;19.05;;
26062;SDS011;13837;48.562;12.108;2022-11-11T10:57:54;30.08;;;27.27;;
26062;SDS011;13837;48.562;12.108;2022-11-11T11:00:43;17.85;;;16.45;;
26062;SDS011;13837;48.562;12.108;2022-11-11T11:03:38;20.02;;;18.63;;
26062;SDS011;13837;48.562;12.108;2022-11-11T11:06:30;15.77;;;14.65;;
26062;SDS011;13837;48.562;12.108;2022-11-11T11:09:25;21.15;;;19.25;;
26062;SDS011;13837;48.562;12.108;2022-11-11T11:12:14;17.88;;;16.58;;
26062;SDS011;13837;48.562;12.108;2022-11-11T11:15:05;17.88;;;16.58;;
26062;SDS011;13837;48.562;12.108;2022-11-11T11:18:10;22.02;;;20.33;;
26062;SDS011;13837;48.562;12.108;2022-11-11T11:21:00;19.45;;;18.02;;
26062;SDS011;13837;48.562;12.108;2022-11-11T11:23:46;18.52;;;17.02;;
26062;SDS011;13837;48.562;12.108;2022-11-11T11:32:59;15.13;;;13.82;;
26062;SDS011;13837;48.562;12.108;2022-11-11T11:35:46;13.30;;;12.50;;
26062;SDS011;13837;48.562;12.108;2022-11-11T11:38:43;15.80;;;14.43;;
26062;SDS011;13837;48.562;12.108;2022-11-11T11:41:42;12.07;;;11.18;;
26062;SDS011;13837;48.562;12.108;2022-11-11T11:44:33;11.32;;;10.60;;
26062;SDS011;13837;48.562;12.108;2022-11-11T11:50:40;11.10;;;10.30;;
26062;SDS011;13837;48.562;12.108;2022-11-11T11:53:49;11.60;;;10.68;;
26062;SDS011;13837;48.562;12.108;2022-11-11T11:56:48;11.48;;;10.73;;
26062;SDS011;13837;48.562;12.108;2022-11-11T11:59:41;11.73;;;10.95;;
26062;SDS011;13837;48.562;12.108;2022-11-11T12:30:17;11.70;;;11.00;;
26062;SDS011;13837;48.562;12.108;2022-11-11T12:44:17;13.05;;;12.02;;
26062;SDS011;13837;48.562;12.108;2022-11-11T12:50:21;12.60;;;11.70;;
26062;SDS011;13837;48.562;12.108;2022-11-11T13:42:56;15.03;;;13.87;;
26062;SDS011;13837;48.562;12.108;2022-11-11T13:45:49;15.65;;;14.40;;
26062;SDS011;13837;48.562;12.108;2022-11-11T13:48:51;15.05;;;13.93;;
26062;SDS011;13837;48.562;12.108;2022-11-11T13:51:39;15.32;;;14.02;;
26062;SDS011;13837;48.562;12.108;2022-11-11T13:54:30;16.45;;;15.05;;
26062;SDS011;13837;48.562;12.108;2022-11-11T13:57:26;17.38;;;15.95;;
26062;SDS011;13837;48.562;12.108;2022-11-11T14:00:26;17.52;;;15.80;;
26062;SDS011;13837;48.562;12.108;2022-11-11T14:57:38;63.45;;;49.38;;
26062;SDS011;13837;48.562;12.108;2022-11-11T15:37:06;86.68;;;53.25;;
26062;SDS011;13837;48.562;12.108;2022-11-11T15:39:56;60.65;;;38.78;;
26062;SDS011;13837;48.562;12.108;2022-11-11T15:51:27;68.00;;;45.20;;
26062;SDS011;13837;48.562;12.108;2022-11-11T15:54:19;62.00;;;42.30;;
26062;SDS011;13837;48.562;12.108;2022-11-11T15:57:21;77.20;;;46.97;;
26062;SDS011;13837;48.562;12.108;2022-11-11T16:00:24;60.75;;;28.02;;
26062;SDS011;13837;48.562;12.108;2022-11-11T17:49:03;44.17;;;32.08;;
26062;SDS011;13837;48.562;12.108;2022-11-11T18:54:48;35.33;;;31.10;;
26062;SDS011;13837;48.562;12.108;2022-11-11T19:00:22;40.92;;;34.05;;
26062;SDS011;13837;48.562;12.108;2022-11-11T19:05:52;83.18;;;32.55;;
26062;SDS011;13837;48.562;12.108;2022-11-11T19:08:44;47.33;;;31.92;;
26062;SDS011;13837;48.562;12.108;2022-11-11T19:11:28;37.65;;;32.92;;
26062;SDS011;13837;48.562;12.108;2022-11-11T19:14:19;57.40;;;30.17;;
26062;SDS011;13837;48.562;12.108;2022-11-11T19:17:09;30.40;;;27.55;;
26062;SDS011;13837;48.562;12.108;2022-11-11T19:19:54;49.95;;;28.40;;
26062;SDS011;13837;48.562;12.108;2022-11-11T19:22:42;57.35;;;28.27;;
26062;SDS011;13837;48.562;12.108;2022-11-11T19:25:37;41.40;;;30.25;;
26062;SDS011;13837;48.562;12.108;2022-11-11T19:28:24;65.22;;;33.30;;
26062;SDS011;13837;48.562;12.108;2022-11-11T19:31:16;46.63;;;30.10;;
26062;SDS011;13837;48.562;12.108;2022-11-11T19:36:54;54.25;;;31.38;;
26062;SDS011;13837;48.562;12.108;2022-11-11T19:39:41;73.38;;;30.00;;
26062;SDS011;13837;48.562;12.108;2022-11-11T19:42:31;57.22;;;28.98;;
26062;SDS011;13837;48.562;12.108;2022-11-11T19:45:22;38.00;;;33.40;;
26062;SDS011;13837;48.562;12.108;2022-11-11T19:48:07;109.40;;;42.58;;
26062;SDS011;13837;48.562;12.108;2022-11-11T19:50:51;42.65;;;30.65;;
26062;SDS011;13837;48.562;12.108;2022-11-11T19:53:40;51.17;;;28.95;;
26062;SDS011;13837;48.562;12.108;2022-11-11T19:56:28;99.75;;;34.08;;
26062;SDS011;13837;48.562;12.108;2022-11-11T19:59:23;38.15;;;30.27;;
26062;SDS011;13837;48.562;12.108;2022-11-11T20:02:10;57.75;;;31.15;;
26062;SDS011;13837;48.562;12.108;2022-11-11T20:04:56;52.95;;;28.15;;
26062;SDS011;13837;48.562;12.108;2022-11-11T20:07:44;35.45;;;25.67;;
26062;SDS011;13837;48.562;12.108;2022-11-11T20:10:34;42.95;;;25.48;;
26062;SDS011;13837;48.562;12.108;2022-11-11T20:16:09;32.28;;;28.77;;
26062;SDS011;13837;48.562;12.108;2022-11-11T20:18:57;88.95;;;30.48;;
26062;SDS011;13837;48.562;12.108;2022-11-11T20:21:53;99.57;;;39.67;;
26062;SDS011;13837;48.562;12.108;2022-11-11T20:24:44;51.15;;;32.05;;
26062;SDS011;13837;48.562;12.108;2022-11-11T20:27:36;44.25;;;29.38;;
26062;SDS011;13837;48.562;12.108;2022-11-11T20:30:24;74.47;;;28.48;;
26062;SDS011;13837;48.562;12.108;2022-11-11T20:33:17;49.03;;;29.23;;
26062;SDS011;13837;48.562;12.108;2022-11-11T20:36:09;31.25;;;27.73;;
26062;SDS011;13837;48.562;12.108;2022-11-11T20:39:00;57.58;;;33.80;;
26062;SDS011;13837;48.562;12.108;2022-11-11T20:41:44;38.17;;;28.90;;
26062;SDS011;13837;48.562;12.108;2022-11-11T20:44:34;34.80;;;27.25;;
26062;SDS011;13837;48.562;12.108;2022-11-11T20:47:21;75.75;;;29.23;;
26062;SDS011;13837;48.562;12.108;2022-11-11T20:50:08;52.40;;;27.85;;
26062;SDS011;13837;48.562;12.108;2022-11-11T20:52:53;37.28;;;26.88;;
26062;SDS011;13837;48.562;12.108;2022-11-11T20:55:46;30.08;;;24.17;;
26062;SDS011;13837;48.562;12.108;2022-11-11T20:58:39;64.72;;;25.50;;
26062;SDS011;13837;48.562;12.108;2022-11-11T21:01:31;46.28;;;24.38;;
26062;SDS011;13837;48.562;12.108;2022-11-11T21:04:17;72.13;;;27.67;;
26062;SDS011;13837;48.562;12.108;2022-11-11T21:07:06;43.75;;;25.00;;
26062;SDS011;13837;48.562;12.108;2022-11-11T21:09:56;36.42;;;26.17;;
26062;SDS011;13837;48.562;12.108;2022-11-11T21:12:46;48.58;;;24.85;;
26062;SDS011;13837;48.562;12.108;2022-11-11T21:15:36;64.63;;;27.20;;
26062;SDS011;13837;48.562;12.108;2022-11-11T21:18:23;30.17;;;25.95;;
26062;SDS011;13837;48.562;12.108;2022-11-11T21:24:05;66.07;;;25.58;;
26062;SDS011;13837;48.562;12.108;2022-11-11T21:26:53;38.55;;;24.75;;
26062;SDS011;13837;48.562;12.108;2022-11-11T21:29:38;87.32;;;26.35;;
26062;SDS011;13837;48.562;12.108;2022-11-11T21:32:28;30.92;;;25.00;;
26062;SDS011;13837;48.562;12.108;2022-11-11T21:35:22;40.13;;;24.58;;
26062;SDS011;13837;48.562;12.108;2022-11-11T21:38:14;33.13;;;25.27;;
26062;SDS011;13837;48.562;12.108;2022-11-11T21:41:01;55.83;;;25.80;;
26062;SDS011;13837;48.562;12.108;2022-11-11T21:44:24;71.70;;;27.10;;
26062;SDS011;13837;48.562;12.108;2022-11-11T21:47:16;62.78;;;28.75;;
26062;SDS011;13837;48.562;12.108;2022-11-11T21:50:05;41.60;;;28.08;;
26062;SDS011;13837;48.562;12.108;2022-11-11T21:52:50;60.90;;;27.00;;
26062;SDS011;13837;48.562;12.108;2022-11-11T21:55:37;39.65;;;25.13;;
26062;SDS011;13837;48.562;12.108;2022-11-11T21:58:24;38.65;;;26.42;;
26062;SDS011;13837;48.562;12.108;2022-11-11T22:01:14;58.92;;;26.27;;
26062;SDS011;13837;48.562;12.108;2022-11-11T22:04:08;38.00;;;26.10;;
26062;SDS011;13837;48.562;12.108;2022-11-11T22:06:54;54.45;;;27.05;;
26062;SDS011;13837;48.562;12.108;2022-11-11T22:09:38;100.72;;;30.27;;
26062;SDS011;13837;48.562;12.108;2022-11-11T22:12:22;91.97;;;28.80;;
26062;SDS011;13837;48.562;12.108;2022-11-11T22:15:06;39.75;;;25.90;;
26062;SDS011;13837;48.562;12.108;2022-11-11T22:17:51;107.57;;;28.98;;
26062;SDS011;13837;48.562;12.108;2022-11-11T22:20:36;43.47;;;26.75;;
26062;SDS011;13837;48.562;12.108;2022-11-11T22:23:20;126.28;;;30.60;;
26062;SDS011;13837;48.562;12.108;2022-11-11T22:26:05;102.15;;;28.00;;
26062;SDS011;13837;48.562;12.108;2022-11-11T22:28:54;76.72;;;27.23;;
26062;SDS011;13837;48.562;12.108;2022-11-11T22:31:38;82.85;;;29.27;;
26062;SDS011;13837;48.562;12.108;2022-11-11T22:34:27;84.47;;;29.80;;
26062;SDS011;13837;48.562;12.108;2022-11-11T22:37:11;29.60;;;26.48;;
26062;SDS011;13837;48.562;12.108;2022-11-11T22:39:55;56.38;;;28.17;;
26062;SDS011;13837;48.562;12.108;2022-11-11T22:42:39;41.40;;;27.70;;
26062;SDS011;13837;48.562;12.108;2022-11-11T22:45:23;71.22;;;29.00;;
26062;SDS011;13837;48.562;12.108;2022-11-11T22:48:08;55.25;;;28.27;;
26062;SDS011;13837;48.562;12.108;2022-11-11T22:50:52;53.22;;;25.88;;
26062;SDS011;13837;48.562;12.108;2022-11-11T22:53:37;54.42;;;26.23;;
26062;SDS011;13837;48.562;12.108;2022-11-11T22:56:24;31.13;;;25.13;;
26062;SDS011;13837;48.562;12.108;2022-11-11T22:59:08;49.17;;;26.90;;
26062;SDS011;13837;48.562;12.108;2022-11-11T23:01:53;63.20;;;27.80;;
26062;SDS011;13837;48.562;12.108;2022-11-11T23:04:37;79.10;;;28.15;;
26062;SDS011;13837;48.562;12.108;2022-11-11T23:07:22;78.13;;;27.85;;
26062;SDS011;13837;48.562;12.108;2022-11-11T23:10:06;38.35;;;25.98;;
26062;SDS011;13837;48.562;12.108;2022-11-11T23:12:51;44.58;;;26.55;;
26062;SDS011;13837;48.562;12.108;2022-11-11T23:15:35;30.92;;;26.75;;
26062;SDS011;13837;48.562;12.108;2022-11-11T23:18:20;29.58;;;26.52;;
26062;SDS011;13837;48.562;12.108;2022-11-11T23:21:06;29.60;;;26.45;;
26062;SDS011;13837;48.562;12.108;2022-11-11T23:23:55;57.30;;;26.70;;
26062;SDS011;13837;48.562;12.108;2022-11-11T23:26:41;90.10;;;28.70;;
26062;SDS011;13837;48.562;12.108;2022-11-11T23:29:26;95.30;;;30.35;;
26062;SDS011;13837;48.562;12.108;2022-11-11T23:32:10;38.15;;;26.52;;
26062;SDS011;13837;48.562;12.108;2022-11-11T23:34:54;30.90;;;27.25;;
26062;SDS011;13837;48.562;12.108;2022-11-11T23:37:39;42.13;;;26.73;;
26062;SDS011;13837;48.562;12.108;2022-11-11T23:40:22;66.20;;;27.20;;